Time;durP1;ratioP1;P1;durP2;ratioP2;P2;SDS_P1;SDS_P2;PMS_P1;PMS_P2;Temp;Humidity;BMP_temperature;BMP_pressure;BME280_temperature;BME280_humidity;BME280_pressure;Samples;Min_cycle;Max_cycle;Signal;HPM_P1;HPM_P2
2022/10/20 00:00:36;;;;;;;;;;;5.70;94.00;;;;;;5060157;28;19963;-76
2022/10/20 00:03:02;;;;;;;;;;;5.70;94.00;;;;;;5062136;28;19917;-78
2022/10/20 00:05:27;;;;;;;;;;;5.80;94.10;;;;;;5067548;28;20364;-79
2022/10/20 00:07:52;;;;;;;;;;;5.70;93.90;;;;;;5062811;28;19931;-76
2022/10/20 00:10:18;;;;;;;;;;;5.80;93.90;;;;;;5064073;28;20386;-75
2022/10/20 00:12:43;;;;;;;;;;;5.80;93.80;;;;;;5079477;28;19943;-76
2022/10/20 00:15:09;;;;;;;;;;;5.70;93.90;;;;;;5076437;28;19999;-75
2022/10/20 00:17:34;;;;;;;;;;;5.60;93.90;;;;;;5061688;28;20001;-76
2022/10/20 00:20:00;;;;;;;;;;;5.60;94.20;;;;;;5057887;28;20383;-76
2022/10/20 00:22:25;;;;;;;;;;;5.60;94.40;;;;;;5069396;28;19905;-78
2022/10/20 00:24:51;;;;;;;;;;;5.60;94.40;;;;;;5060613;28;19916;-77
2022/10/20 00:27:16;;;;;;;;;;;5.60;94.50;;;;;;5063739;28;19909;-76
2022/10/20 00:29:41;;;;;;;;;;;5.60;94.40;;;;;;5067687;28;19990;-78
2022/10/20 00:32:07;;;;;;;;;;;5.60;94.60;;;;;;5058655;28;19912;-76
2022/10/20 00:34:32;;;;;;;;;;;5.60;94.60;;;;;;5063330;28;19956;-77
2022/10/20 00:36:58;;;;;;;;;;;5.60;94.80;;;;;;5061156;28;20439;-75
2022/10/20 00:39:23;;;;;;;;;;;5.60;94.70;;;;;;5056934;28;19909;-76
2022/10/20 00:41:48;;;;;;;;;;;5.60;94.80;;;;;;5081907;28;20343;-76
2022/10/20 00:44:32;;;;;;;;;;;5.60;94.90;;;;;;5075043;28;19915;-76
2022/10/20 00:46:58;;;;;;;;;;;5.60;94.80;;;;;;5054731;28;19912;-76
2022/10/20 00:49:24;;;;;;;;;;;5.60;94.90;;;;;;5061608;28;19919;-75
2022/10/20 00:51:51;;;;;;;;;;;5.60;94.70;;;;;;5062743;28;19934;-78
2022/10/20 00:54:18;;;;;;;;;;;5.50;94.70;;;;;;5061057;28;19908;-76
2022/10/20 00:56:44;;;;;;;;;;;5.50;94.80;;;;;;5062227;28;19916;-76
2022/10/20 00:59:11;;;;;;;;;;;5.50;94.90;;;;;;5061795;28;19999;-76
2022/10/20 01:01:37;;;;;;;;;;;5.40;94.90;;;;;;5069131;28;19905;-76
2022/10/20 01:04:03;;;;;;;;;;;5.40;94.90;;;;;;5064963;28;19919;-76
2022/10/20 01:06:28;;;;;;;;;;;5.30;94.90;;;;;;5069321;28;20298;-75
2022/10/20 01:08:54;;;;;;;;;;;5.30;95.10;;;;;;5069249;28;19910;-76
2022/10/20 01:11:28;;;;;;;;;;;5.30;95.20;;;;;;5057250;28;19917;-76
2022/10/20 01:13:58;;;;;;;;;;;5.20;95.20;;;;;;5063700;28;19994;-76
2022/10/20 01:16:27;;;;;;;;;;;5.20;95.30;;;;;;5067025;28;20404;-77
2022/10/20 01:19:00;;;;;;;;;;;5.10;95.30;;;;;;5063598;28;20296;-76
2022/10/20 01:21:40;;;;;;;;;;;5.10;95.40;;;;;;5057752;28;19912;-75
2022/10/20 01:24:05;;;;;;;;;;;5.10;95.60;;;;;;5056747;28;19943;-76
2022/10/20 01:26:57;;;;;;;;;;;5.00;95.70;;;;;;5056096;28;20368;-76
2022/10/20 01:29:31;;;;;;;;;;;5.10;95.80;;;;;;5063313;28;19935;-77
2022/10/20 01:32:07;;;;;;;;;;;5.00;95.80;;;;;;5065979;28;19915;-76
2022/10/20 01:34:44;;;;;;;;;;;5.00;95.90;;;;;;5053481;28;20352;-76
2022/10/20 01:37:14;;;;;;;;;;;4.90;95.90;;;;;;5065762;28;19962;-76
2022/10/20 01:39:46;;;;;;;;;;;5.00;96.30;;;;;;5063828;28;20011;-76
2022/10/20 01:42:15;;;;;;;;;;;5.10;96.00;;;;;;5059897;28;20011;-77
2022/10/20 01:44:41;;;;;;;;;;;5.00;96.00;;;;;;5068186;28;19916;-76
2022/10/20 01:47:08;;;;;;;;;;;5.10;96.20;;;;;;5061235;28;19908;-76
2022/10/20 01:49:33;;;;;;;;;;;5.20;96.00;;;;;;5068187;28;19908;-76
2022/10/20 01:51:59;;;;;;;;;;;5.20;96.00;;;;;;5060170;28;19915;-76
2022/10/20 01:54:26;;;;;;;;;;;5.10;95.90;;;;;;5063804;28;20140;-76
2022/10/20 01:57:15;;;;;;;;;;;5.20;96.00;;;;;;5070012;28;19912;-76
2022/10/20 01:59:59;;;;;;;;;;;5.40;95.80;;;;;;5023870;28;19912;-76
2022/10/20 02:02:30;;;;;;;;;;;5.30;95.50;;;;;;5059691;28;19908;-76
2022/10/20 02:05:11;;;;;;;;;;;5.40;95.40;;;;;;5058625;28;19916;-76
2022/10/20 02:07:37;;;;;;;;;;;5.40;95.30;;;;;;5057231;28;19909;-76
2022/10/20 02:10:11;;;;;;;;;;;5.40;95.40;;;;;;5056337;28;19944;-76
2022/10/20 02:12:38;;;;;;;;;;;5.30;95.30;;;;;;5072034;28;19908;-76
2022/10/20 02:15:04;;;;;;;;;;;5.40;95.30;;;;;;5060076;28;19916;-77
2022/10/20 02:17:31;;;;;;;;;;;5.30;95.40;;;;;;5055633;28;19913;-79
2022/10/20 02:19:57;;;;;;;;;;;5.20;95.30;;;;;;5056080;28;19915;-78
2022/10/20 02:22:23;;;;;;;;;;;5.20;95.40;;;;;;5056796;28;19996;-76
2022/10/20 02:24:48;;;;;;;;;;;5.10;95.30;;;;;;5059330;28;20321;-76
2022/10/20 02:27:15;;;;;;;;;;;5.10;95.50;;;;;;5062705;28;19912;-76
2022/10/20 02:29:44;;;;;;;;;;;5.10;95.50;;;;;;5060530;28;19967;-76
2022/10/20 02:32:10;;;;;;;;;;;5.10;95.50;;;;;;5064150;28;19917;-76
2022/10/20 02:34:35;;;;;;;;;;;5.10;95.40;;;;;;5053377;28;19915;-77
2022/10/20 02:37:01;;;;;;;;;;;5.10;95.50;;;;;;5045729;28;19913;-76
2022/10/20 02:39:26;;;;;;;;;;;5.00;95.50;;;;;;5054989;28;19958;-76
2022/10/20 02:41:53;;;;;;;;;;;5.00;95.50;;;;;;5062026;28;19912;-76
2022/10/20 02:44:18;;;;;;;;;;;5.00;95.80;;;;;;5061241;28;19965;-76
2022/10/20 02:46:44;;;;;;;;;;;5.00;95.60;;;;;;5065155;28;20003;-76
2022/10/20 02:49:09;;;;;;;;;;;5.00;95.60;;;;;;5064733;28;19915;-78
2022/10/20 02:51:35;;;;;;;;;;;4.90;95.50;;;;;;5052875;28;20419;-76
2022/10/20 02:54:00;;;;;;;;;;;5.00;95.80;;;;;;5063045;28;20466;-76
2022/10/20 02:56:25;;;;;;;;;;;5.00;95.80;;;;;;5071529;28;19939;-76
2022/10/20 02:58:51;;;;;;;;;;;5.00;95.70;;;;;;5057889;28;19919;-76
2022/10/20 03:01:16;;;;;;;;;;;5.00;95.70;;;;;;5050553;28;20241;-80
2022/10/20 03:03:42;;;;;;;;;;;5.00;95.70;;;;;;5057459;28;19919;-76
2022/10/20 03:06:11;;;;;;;;;;;5.00;95.90;;;;;;5060811;28;19916;-76
2022/10/20 03:08:36;;;;;;;;;;;5.00;95.70;;;;;;5067222;28;19908;-76
2022/10/20 03:11:02;;;;;;;;;;;4.90;95.80;;;;;;5064178;28;20322;-77
2022/10/20 03:13:28;;;;;;;;;;;5.00;95.80;;;;;;5060790;28;19936;-76
2022/10/20 03:15:53;;;;;;;;;;;5.00;95.80;;;;;;5070109;28;19904;-76
2022/10/20 03:18:19;;;;;;;;;;;5.00;95.80;;;;;;5070472;28;19958;-76
2022/10/20 03:20:44;;;;;;;;;;;5.00;95.80;;;;;;5071101;28;19953;-76
2022/10/20 03:23:09;;;;;;;;;;;5.00;95.70;;;;;;5063593;28;20276;-76
2022/10/20 03:25:35;;;;;;;;;;;5.00;95.80;;;;;;5070888;28;19913;-76
2022/10/20 03:28:00;;;;;;;;;;;4.90;95.80;;;;;;5068848;28;20022;-76
2022/10/20 03:30:26;;;;;;;;;;;4.90;95.90;;;;;;5059082;28;19999;-77
2022/10/20 03:32:51;;;;;;;;;;;4.90;95.90;;;;;;5058466;28;20455;-76
2022/10/20 03:35:17;;;;;;;;;;;4.90;95.90;;;;;;5068970;28;20431;-76
2022/10/20 03:37:42;;;;;;;;;;;4.90;95.90;;;;;;5072447;28;19966;-77
2022/10/20 03:40:08;;;;;;;;;;;4.90;96.00;;;;;;5072051;28;19999;-76
2022/10/20 03:42:33;;;;;;;;;;;4.80;95.90;;;;;;5041556;28;19908;-76
2022/10/20 03:44:59;;;;;;;;;;;4.80;96.00;;;;;;5066980;28;19981;-76
2022/10/20 03:47:24;;;;;;;;;;;4.80;96.10;;;;;;5063632;28;19943;-78
2022/10/20 03:49:50;;;;;;;;;;;4.80;96.00;;;;;;5067553;28;19912;-76
2022/10/20 03:52:15;;;;;;;;;;;4.80;96.00;;;;;;5066397;28;19920;-76
2022/10/20 03:54:41;;;;;;;;;;;4.70;96.00;;;;;;5082201;28;19908;-76
2022/10/20 03:57:07;;;;;;;;;;;4.70;96.10;;;;;;5052443;28;19954;-76
2022/10/20 03:59:32;;;;;;;;;;;4.70;96.20;;;;;;5072373;28;19912;-77
2022/10/20 04:01:57;;;;;;;;;;;4.70;96.30;;;;;;5061812;28;19947;-77
2022/10/20 04:04:23;;;;;;;;;;;4.70;96.20;;;;;;5061093;28;20006;-78
2022/10/20 04:06:48;;;;;;;;;;;4.70;96.30;;;;;;5068627;28;19951;-76
2022/10/20 04:09:14;;;;;;;;;;;4.70;96.20;;;;;;5070797;28;19991;-76
2022/10/20 04:11:39;;;;;;;;;;;4.70;96.20;;;;;;5065963;28;19912;-76
2022/10/20 04:14:05;;;;;;;;;;;4.80;96.10;;;;;;5066842;28;19909;-79
2022/10/20 04:16:30;;;;;;;;;;;4.70;96.10;;;;;;5056321;28;19954;-76
2022/10/20 04:18:56;;;;;;;;;;;4.70;96.00;;;;;;5063613;28;19909;-76
2022/10/20 04:21:21;;;;;;;;;;;4.70;96.00;;;;;;5061494;28;19912;-79
2022/10/20 04:23:47;;;;;;;;;;;4.80;96.00;;;;;;5069950;28;20253;-79
2022/10/20 04:26:13;;;;;;;;;;;4.70;95.90;;;;;;5071725;28;19920;-76
2022/10/20 04:28:39;;;;;;;;;;;4.70;96.00;;;;;;5068896;28;20360;-72
2022/10/20 04:31:05;;;;;;;;;;;4.70;96.10;;;;;;5060029;28;19950;-72
2022/10/20 04:33:30;;;;;;;;;;;4.80;96.00;;;;;;5060950;28;20352;-69
2022/10/20 04:35:58;;;;;;;;;;;4.80;95.90;;;;;;5062950;28;19948;-72
2022/10/20 04:38:24;;;;;;;;;;;4.80;95.90;;;;;;5046521;28;22036;-70
2022/10/20 04:40:53;;;;;;;;;;;4.70;95.80;;;;;;5051023;28;20009;-70
2022/10/20 04:43:19;;;;;;;;;;;4.70;95.80;;;;;;5048358;28;19916;-70
2022/10/20 04:45:44;;;;;;;;;;;4.60;95.90;;;;;;5043542;28;19916;-70
2022/10/20 04:48:09;;;;;;;;;;;4.60;96.00;;;;;;5042095;28;19908;-71
2022/10/20 04:50:35;;;;;;;;;;;4.60;96.00;;;;;;5059418;28;19908;-71
2022/10/20 04:53:00;;;;;;;;;;;4.50;96.10;;;;;;5044405;28;20422;-70
2022/10/20 04:55:26;;;;;;;;;;;4.60;96.30;;;;;;5052167;28;20273;-71
2022/10/20 04:57:51;;;;;;;;;;;4.60;96.20;;;;;;5051429;28;20402;-70
2022/10/20 05:00:17;;;;;;;;;;;4.60;96.20;;;;;;5053694;28;19947;-70
2022/10/20 05:02:43;;;;;;;;;;;4.60;96.40;;;;;;5052197;28;19908;-71
2022/10/20 05:05:09;;;;;;;;;;;4.60;96.30;;;;;;5035766;28;19916;-70
2022/10/20 05:07:34;;;;;;;;;;;4.60;96.50;;;;;;5040242;28;20311;-70
2022/10/20 05:10:00;;;;;;;;;;;4.70;96.20;;;;;;5049615;28;19961;-70
2022/10/20 05:12:26;;;;;;;;;;;4.60;96.10;;;;;;5046240;28;19912;-70
2022/10/20 05:14:52;;;;;;;;;;;4.70;96.30;;;;;;5048313;28;19919;-72
2022/10/20 05:17:17;;;;;;;;;;;4.80;96.10;;;;;;5033118;28;19921;-74
2022/10/20 05:19:44;;;;;;;;;;;4.70;95.90;;;;;;5064716;28;19909;-70
2022/10/20 05:22:10;;;;;;;;;;;4.60;95.90;;;;;;5068430;28;19934;-70
2022/10/20 05:24:36;;;;;;;;;;;4.50;95.90;;;;;;5049625;28;20011;-70
2022/10/20 05:27:02;;;;;;;;;;;4.50;96.00;;;;;;5034533;28;19916;-70
2022/10/20 05:29:28;;;;;;;;;;;4.40;96.10;;;;;;5040012;28;19921;-70
2022/10/20 05:31:53;;;;;;;;;;;4.40;96.20;;;;;;5067159;28;19923;-72
2022/10/20 05:34:18;;;;;;;;;;;4.40;96.10;;;;;;5048916;28;19923;-70
2022/10/20 05:36:44;;;;;;;;;;;4.30;96.30;;;;;;5069290;28;20046;-70
2022/10/20 05:39:09;;;;;;;;;;;4.30;96.40;;;;;;5061860;28;19912;-73
2022/10/20 05:41:35;;;;;;;;;;;4.20;96.20;;;;;;5069840;28;19919;-71
2022/10/20 05:44:02;;;;;;;;;;;4.20;96.50;;;;;;5063553;28;19920;-70
2022/10/20 05:46:30;;;;;;;;;;;4.20;96.50;;;;;;5060207;28;19931;-72
2022/10/20 05:48:59;;;;;;;;;;;4.20;96.50;;;;;;5053674;28;19923;-71
2022/10/20 05:51:27;;;;;;;;;;;4.20;96.60;;;;;;5069907;28;19914;-70
2022/10/20 05:53:56;;;;;;;;;;;4.20;96.70;;;;;;5065506;28;19913;-71
2022/10/20 05:56:23;;;;;;;;;;;4.30;96.70;;;;;;5069525;28;20129;-72
2022/10/20 05:58:49;;;;;;;;;;;4.30;96.70;;;;;;5067345;28;20249;-71
2022/10/20 06:01:22;;;;;;;;;;;4.30;96.70;;;;;;5054585;28;19919;-70
2022/10/20 06:03:53;;;;;;;;;;;4.30;96.70;;;;;;5063514;28;19912;-70
2022/10/20 06:06:20;;;;;;;;;;;4.40;96.70;;;;;;5064674;28;19920;-71
2022/10/20 06:08:46;;;;;;;;;;;4.40;96.70;;;;;;5056243;28;19995;-71
2022/10/20 06:11:14;;;;;;;;;;;4.40;96.70;;;;;;5059048;28;20007;-71
2022/10/20 06:13:39;;;;;;;;;;;4.40;96.60;;;;;;5066952;28;20314;-71
2022/10/20 06:16:09;;;;;;;;;;;4.50;96.70;;;;;;5051529;28;19923;-73
2022/10/20 06:18:37;;;;;;;;;;;4.50;96.60;;;;;;5067408;28;19954;-71
2022/10/20 06:21:07;;;;;;;;;;;4.60;96.60;;;;;;5061948;28;20002;-71
2022/10/20 06:23:33;;;;;;;;;;;4.70;96.40;;;;;;5062696;28;19912;-70
2022/10/20 06:26:06;;;;;;;;;;;4.70;96.40;;;;;;5064024;28;19916;-70
2022/10/20 06:28:32;;;;;;;;;;;4.80;96.40;;;;;;5061620;28;20356;-71
2022/10/20 06:30:58;;;;;;;;;;;4.90;96.30;;;;;;5044635;28;19908;-71
2022/10/20 06:33:27;;;;;;;;;;;4.90;96.30;;;;;;5051550;28;20421;-70
2022/10/20 06:35:57;;;;;;;;;;;4.90;96.10;;;;;;5045331;28;19939;-70
2022/10/20 06:38:23;;;;;;;;;;;4.90;96.10;;;;;;5053375;28;19916;-74
2022/10/20 06:40:50;;;;;;;;;;;5.00;96.10;;;;;;5041247;28;19970;-72
2022/10/20 06:43:15;;;;;;;;;;;5.10;96.00;;;;;;5053036;28;19916;-69
2022/10/20 06:45:41;;;;;;;;;;;5.10;96.00;;;;;;5040618;28;19920;-69
2022/10/20 06:48:07;;;;;;;;;;;5.10;96.10;;;;;;5050670;28;19908;-69
2022/10/20 06:50:33;;;;;;;;;;;5.20;96.00;;;;;;5038126;28;19991;-69
2022/10/20 06:52:59;;;;;;;;;;;5.20;96.00;;;;;;5044354;28;19959;-69
2022/10/20 06:55:24;;;;;;;;;;;5.20;96.00;;;;;;5042537;28;19943;-68
2022/10/20 06:57:50;;;;;;;;;;;5.30;96.00;;;;;;5027235;28;19947;-69
2022/10/20 07:00:17;;;;;;;;;;;5.40;96.00;;;;;;5050440;28;19908;-69
2022/10/20 07:02:42;;;;;;;;;;;5.40;95.90;;;;;;5055525;28;19956;-69
2022/10/20 07:05:08;;;;;;;;;;;5.50;96.00;;;;;;5046618;28;19960;-69
2022/10/20 07:07:34;;;;;;;;;;;5.60;95.90;;;;;;5059723;28;19912;-69
2022/10/20 07:09:59;;;;;;;;;;;5.60;95.90;;;;;;5060924;28;20383;-73
2022/10/20 07:12:25;;;;;;;;;;;5.70;95.80;;;;;;5048890;28;19908;-69
2022/10/20 07:14:50;;;;;;;;;;;5.80;95.80;;;;;;5066591;28;19996;-72
2022/10/20 07:17:16;;;;;;;;;;;5.80;95.70;;;;;;5041058;28;19916;-72
2022/10/20 07:19:41;;;;;;;;;;;5.90;95.70;;;;;;5033466;28;20611;-71
2022/10/20 07:22:08;;;;;;;;;;;6.00;95.70;;;;;;5043018;28;19913;-71
2022/10/20 07:24:33;;;;;;;;;;;6.00;95.70;;;;;;5033968;28;19955;-72
2022/10/20 07:26:59;;;;;;;;;;;6.10;95.70;;;;;;5036006;28;19947;-69
2022/10/20 07:29:29;;;;;;;;;;;6.20;95.50;;;;;;5043479;28;19924;-69
2022/10/20 07:31:54;;;;;;;;;;;6.30;95.50;;;;;;5059060;28;20345;-68
2022/10/20 07:34:22;;;;;;;;;;;6.40;95.40;;;;;;5060042;28;19908;-71
2022/10/20 07:36:49;;;;;;;;;;;6.40;95.20;;;;;;5054632;28;19913;-68
2022/10/20 07:39:16;;;;;;;;;;;6.50;95.20;;;;;;5046182;28;20062;-72
2022/10/20 07:41:46;;;;;;;;;;;6.60;95.00;;;;;;5047157;28;20311;-71
2022/10/20 07:44:12;;;;;;;;;;;6.70;94.90;;;;;;5038316;28;20387;-72
2022/10/20 07:46:37;;;;;;;;;;;6.80;94.70;;;;;;5051431;28;19921;-71
2022/10/20 07:49:03;;;;;;;;;;;6.90;94.50;;;;;;5065433;28;19917;-71
2022/10/20 07:51:31;;;;;;;;;;;7.10;94.40;;;;;;5062054;28;19916;-71
2022/10/20 07:54:05;;;;;;;;;;;7.10;94.10;;;;;;5073420;28;19916;-72
2022/10/20 07:56:32;;;;;;;;;;;7.30;93.90;;;;;;5067977;28;19908;-70
2022/10/20 07:58:58;;;;;;;;;;;7.50;93.50;;;;;;5069295;28;19908;-71
2022/10/20 08:01:25;;;;;;;;;;;7.60;93.20;;;;;;5062632;28;20359;-71
2022/10/20 08:03:51;;;;;;;;;;;7.80;93.00;;;;;;5070541;28;19950;-71
2022/10/20 08:06:18;;;;;;;;;;;7.90;92.80;;;;;;5063822;28;20516;-72
2022/10/20 08:08:43;;;;;;;;;;;8.00;92.50;;;;;;5060314;28;20366;-70
2022/10/20 08:11:09;;;;;;;;;;;8.10;92.20;;;;;;5067162;28;19912;-74
2022/10/20 08:13:34;;;;;;;;;;;8.20;92.10;;;;;;5055303;28;19917;-71
2022/10/20 08:16:00;;;;;;;;;;;8.30;91.60;;;;;;5056599;28;19909;-71
2022/10/20 08:18:26;;;;;;;;;;;8.40;91.40;;;;;;5063958;28;19904;-70
2022/10/20 08:20:51;;;;;;;;;;;8.50;91.40;;;;;;5056637;28;19912;-70
2022/10/20 08:23:17;;;;;;;;;;;8.50;90.80;;;;;;5065117;28;20337;-70
2022/10/20 08:25:42;;;;;;;;;;;8.60;90.20;;;;;;5066544;28;19993;-70
2022/10/20 08:28:08;;;;;;;;;;;8.80;90.50;;;;;;5072408;28;20348;-70
2022/10/20 08:30:33;;;;;;;;;;;9.00;90.60;;;;;;5065924;28;20047;-71
2022/10/20 08:32:59;;;;;;;;;;;9.10;89.90;;;;;;5058479;28;19945;-71
2022/10/20 08:35:24;;;;;;;;;;;9.10;89.50;;;;;;5056378;28;19936;-71
2022/10/20 08:37:50;;;;;;;;;;;9.10;88.90;;;;;;5063200;28;20341;-71
2022/10/20 08:40:20;;;;;;;;;;;9.30;88.60;;;;;;5064312;28;19915;-70
2022/10/20 08:42:46;;;;;;;;;;;9.20;88.20;;;;;;5048971;28;19912;-71
2022/10/20 08:45:18;;;;;;;;;;;9.30;88.00;;;;;;5062900;28;20030;-70
2022/10/20 08:47:44;;;;;;;;;;;9.50;87.80;;;;;;5061744;28;20284;-70
2022/10/20 08:50:11;;;;;;;;;;;9.40;87.20;;;;;;5058590;28;19933;-70
2022/10/20 08:52:39;;;;;;;;;;;9.60;86.60;;;;;;5063395;28;19916;-70
2022/10/20 08:55:04;;;;;;;;;;;9.50;86.60;;;;;;5058791;28;19912;-70
2022/10/20 08:57:30;;;;;;;;;;;9.60;86.40;;;;;;5061952;28;19923;-71
2022/10/20 09:00:15;;;;;;;;;;;9.60;85.90;;;;;;5076075;28;19908;-70
2022/10/20 09:02:41;;;;;;;;;;;9.70;85.60;;;;;;5060582;28;19995;-68
2022/10/20 09:05:07;;;;;;;;;;;9.70;85.20;;;;;;5056058;28;20299;-68
2022/10/20 09:07:34;;;;;;;;;;;10.00;85.50;;;;;;5062814;28;19913;-69
2022/10/20 09:10:03;;;;;;;;;;;10.00;84.90;;;;;;5063761;28;19920;-69
2022/10/20 09:12:29;;;;;;;;;;;10.10;84.10;;;;;;5060610;28;20272;-71
2022/10/20 09:14:56;;;;;;;;;;;10.30;84.20;;;;;;5057153;28;19963;-70
2022/10/20 09:17:21;;;;;;;;;;;10.30;83.50;;;;;;5058089;28;19916;-70
2022/10/20 09:19:57;;;;;;;;;;;10.50;83.10;;;;;;5057092;28;19916;-70
2022/10/20 09:22:24;;;;;;;;;;;10.50;83.30;;;;;;5059244;28;19947;-70
2022/10/20 09:24:51;;;;;;;;;;;10.60;82.50;;;;;;5057944;28;20260;-71
2022/10/20 09:27:18;;;;;;;;;;;10.80;82.40;;;;;;5061271;28;19912;-71
2022/10/20 09:29:44;;;;;;;;;;;10.90;81.10;;;;;;5061963;28;19925;-72
2022/10/20 09:32:21;;;;;;;;;;;10.90;81.10;;;;;;5062783;28;19912;-69
2022/10/20 09:34:47;;;;;;;;;;;11.10;80.60;;;;;;5058176;28;19915;-68
2022/10/20 09:37:15;;;;;;;;;;;11.30;79.70;;;;;;5064675;28;19909;-69
2022/10/20 09:39:52;;;;;;;;;;;11.40;79.20;;;;;;5057694;28;19916;-69
2022/10/20 09:42:21;;;;;;;;;;;11.60;77.60;;;;;;5059125;28;19924;-69
2022/10/20 09:45:07;;;;;;;;;;;11.40;77.20;;;;;;5059887;28;19920;-69
2022/10/20 09:47:33;;;;;;;;;;;11.60;78.90;;;;;;5063387;28;19917;-72
2022/10/20 09:50:01;;;;;;;;;;;11.60;78.30;;;;;;5064831;28;19915;-69
2022/10/20 09:52:33;;;;;;;;;;;11.40;78.20;;;;;;5058962;28;19927;-69
2022/10/20 09:55:00;;;;;;;;;;;11.50;78.30;;;;;;5059288;28;19913;-69
2022/10/20 09:57:26;;;;;;;;;;;11.60;78.60;;;;;;5078292;28;19931;-69
2022/10/20 09:59:52;;;;;;;;;;;11.90;78.40;;;;;;5061981;28;19923;-69
2022/10/20 10:02:18;;;;;;;;;;;11.80;77.40;;;;;;5062727;28;19908;-68
2022/10/20 10:04:45;;;;;;;;;;;11.90;77.00;;;;;;5062941;28;19958;-68
2022/10/20 10:07:26;;;;;;;;;;;12.10;77.60;;;;;;5060590;28;19967;-68
2022/10/20 10:09:58;;;;;;;;;;;12.30;76.70;;;;;;5060306;28;20348;-69
2022/10/20 10:12:25;;;;;;;;;;;12.20;76.40;;;;;;5058275;28;19998;-68
2022/10/20 10:14:52;;;;;;;;;;;12.30;77.00;;;;;;5058902;28;20014;-68
2022/10/20 10:17:33;;;;;;;;;;;12.60;75.80;;;;;;5063547;28;19999;-68
2022/10/20 10:20:00;;;;;;;;;;;12.80;75.60;;;;;;5054154;28;19952;-68
2022/10/20 10:22:26;;;;;;;;;;;13.10;74.10;;;;;;5053227;28;19915;-68
2022/10/20 10:24:53;;;;;;;;;;;13.20;73.60;;;;;;5059302;28;19924;-69
2022/10/20 10:27:21;;;;;;;;;;;13.50;74.60;;;;;;5058241;28;19944;-69
2022/10/20 10:29:47;;;;;;;;;;;13.10;72.70;;;;;;5055743;28;20260;-69
2022/10/20 10:32:15;;;;;;;;;;;13.40;73.50;;;;;;5057621;28;19908;-70
2022/10/20 10:34:52;;;;;;;;;;;13.20;71.80;;;;;;5053416;28;19909;-68
2022/10/20 10:37:18;;;;;;;;;;;13.30;72.70;;;;;;5059594;28;19915;-72
2022/10/20 10:39:43;;;;;;;;;;;13.20;73.00;;;;;;5058001;28;19916;-69
2022/10/20 10:42:26;;;;;;;;;;;13.10;73.30;;;;;;5055626;28;19935;-68
2022/10/20 10:45:10;;;;;;;;;;;13.20;72.80;;;;;;5064345;28;19931;-68
2022/10/20 10:47:48;;;;;;;;;;;13.40;72.60;;;;;;5057142;28;19914;-68
2022/10/20 10:50:25;;;;;;;;;;;13.40;71.20;;;;;;5055806;28;19912;-68
2022/10/20 10:53:13;;;;;;;;;;;13.50;73.50;;;;;;5067874;28;19955;-68
2022/10/20 10:56:04;;;;;;;;;;;13.50;73.30;;;;;;5068691;28;19911;-68
2022/10/20 10:58:43;;;;;;;;;;;13.60;72.90;;;;;;5046387;28;19950;-69
2022/10/20 11:01:21;;;;;;;;;;;13.80;72.20;;;;;;5068414;28;20331;-69
2022/10/20 11:04:01;;;;;;;;;;;14.00;70.50;;;;;;5067341;28;19908;-72
2022/10/20 11:06:43;;;;;;;;;;;14.10;71.90;;;;;;5067354;28;19911;-68
2022/10/20 11:09:09;;;;;;;;;;;14.20;70.60;;;;;;5064594;28;19931;-70
2022/10/20 11:11:41;;;;;;;;;;;14.30;70.10;;;;;;5071353;28;19909;-70
2022/10/20 11:14:12;;;;;;;;;;;14.20;71.00;;;;;;5049199;28;19908;-69
2022/10/20 11:16:53;;;;;;;;;;;14.00;70.50;;;;;;5069432;28;19915;-72
2022/10/20 11:19:23;;;;;;;;;;;14.30;70.40;;;;;;5068206;28;19909;-69
2022/10/20 11:21:55;;;;;;;;;;;14.90;71.80;;;;;;5064874;28;19908;-70
2022/10/20 11:24:34;;;;;;;;;;;14.90;68.60;;;;;;5061415;28;19908;-69
2022/10/20 11:27:10;;;;;;;;;;;15.20;68.10;;;;;;5066152;28;19917;-74
2022/10/20 11:29:38;;;;;;;;;;;14.80;68.00;;;;;;5076333;28;19920;-69
2022/10/20 11:32:11;;;;;;;;;;;15.10;67.80;;;;;;5067545;28;19905;-72
2022/10/20 11:34:49;;;;;;;;;;;15.50;67.50;;;;;;5070844;28;20344;-70
2022/10/20 11:37:22;;;;;;;;;;;15.50;66.40;;;;;;5068128;28;19922;-69
2022/10/20 11:40:07;;;;;;;;;;;15.60;66.80;;;;;;5056145;28;20333;-69
2022/10/20 11:42:40;;;;;;;;;;;15.80;64.50;;;;;;5023165;28;19915;-68
2022/10/20 11:45:21;;;;;;;;;;;15.60;64.00;;;;;;5065601;28;19912;-69
2022/10/20 11:47:48;;;;;;;;;;;15.30;66.50;;;;;;5038777;28;19919;-70
2022/10/20 11:50:16;;;;;;;;;;;16.20;65.80;;;;;;5062885;28;19920;-70
2022/10/20 11:52:47;;;;;;;;;;;16.10;64.50;;;;;;5064159;28;19943;-69
2022/10/20 11:55:22;;;;;;;;;;;16.00;65.10;;;;;;5061911;28;19912;-70
2022/10/20 11:57:53;;;;;;;;;;;16.00;65.00;;;;;;5060465;28;20354;-71
2022/10/20 12:00:32;;;;;;;;;;;16.10;64.30;;;;;;5069078;28;19908;-68
2022/10/20 12:03:07;;;;;;;;;;;15.60;64.70;;;;;;5069620;28;20014;-70
2022/10/20 12:05:42;;;;;;;;;;;15.60;66.00;;;;;;5065499;28;20351;-69
2022/10/20 12:08:10;;;;;;;;;;;14.90;66.90;;;;;;5058951;28;19963;-69
2022/10/20 12:10:35;;;;;;;;;;;15.20;67.50;;;;;;5061611;28;19908;-69
2022/10/20 12:13:10;;;;;;;;;;;15.40;65.60;;;;;;5068340;28;19912;-69
2022/10/20 12:15:44;;;;;;;;;;;15.80;66.50;;;;;;5060796;28;19916;-69
2022/10/20 12:18:22;;;;;;;;;;;16.00;65.20;;;;;;5070593;28;19908;-69
2022/10/20 12:20:49;;;;;;;;;;;16.00;66.50;;;;;;5060576;28;19942;-69
2022/10/20 12:23:34;;;;;;;;;;;16.10;64.30;;;;;;5065766;28;20287;-69
2022/10/20 12:25:59;;;;;;;;;;;15.80;64.20;;;;;;5058721;28;19916;-70
2022/10/20 12:28:27;;;;;;;;;;;16.20;64.80;;;;;;5054525;28;20438;-69
2022/10/20 12:30:54;;;;;;;;;;;16.30;63.30;;;;;;5066377;28;20020;-69
2022/10/20 12:33:39;;;;;;;;;;;16.40;61.20;;;;;;5059847;28;19915;-69
2022/10/20 12:36:12;;;;;;;;;;;16.50;60.90;;;;;;5072591;28;19908;-68
2022/10/20 12:38:38;;;;;;;;;;;17.00;61.00;;;;;;5074045;28;19912;-70
2022/10/20 12:41:06;;;;;;;;;;;17.30;59.40;;;;;;5062983;28;19909;-69
2022/10/20 12:43:35;;;;;;;;;;;17.40;59.30;;;;;;5052050;28;20003;-69
2022/10/20 12:46:08;;;;;;;;;;;17.30;58.60;;;;;;5058659;28;19963;-68
2022/10/20 12:48:39;;;;;;;;;;;17.30;58.60;;;;;;5056889;28;19959;-69
2022/10/20 12:51:06;;;;;;;;;;;17.70;58.40;;;;;;5069069;28;19947;-68
2022/10/20 12:53:32;;;;;;;;;;;17.50;57.30;;;;;;5064569;28;19977;-69
2022/10/20 12:56:08;;;;;;;;;;;17.60;58.50;;;;;;5056860;28;20348;-69
2022/10/20 12:58:34;;;;;;;;;;;17.00;59.40;;;;;;5062492;28;19909;-70
2022/10/20 13:01:08;;;;;;;;;;;17.70;59.30;;;;;;5072146;28;19912;-68
2022/10/20 13:03:35;;;;;;;;;;;17.60;59.50;;;;;;5070885;28;19909;-70
2022/10/20 13:06:01;;;;;;;;;;;17.10;59.40;;;;;;5062433;28;20066;-69
2022/10/20 13:08:27;;;;;;;;;;;17.20;60.50;;;;;;5066956;28;19930;-68
2022/10/20 13:10:53;;;;;;;;;;;16.90;60.20;;;;;;5061089;28;19919;-68
2022/10/20 13:13:18;;;;;;;;;;;17.50;60.00;;;;;;5072117;28;19908;-69
2022/10/20 13:15:44;;;;;;;;;;;17.10;59.60;;;;;;5072053;28;19909;-69
2022/10/20 13:18:12;;;;;;;;;;;17.30;58.50;;;;;;5065507;28;19967;-69
2022/10/20 13:20:56;;;;;;;;;;;16.90;57.90;;;;;;5057223;28;20018;-68
2022/10/20 13:23:24;;;;;;;;;;;17.40;58.90;;;;;;5058802;28;19912;-69
2022/10/20 13:25:50;;;;;;;;;;;17.10;58.10;;;;;;5054079;28;19927;-71
2022/10/20 13:28:23;;;;;;;;;;;17.40;57.80;;;;;;5056702;28;20007;-70
2022/10/20 13:30:51;;;;;;;;;;;17.00;58.70;;;;;;5055119;28;19917;-70
2022/10/20 13:33:28;;;;;;;;;;;17.00;57.30;;;;;;5060129;28;19948;-71
2022/10/20 13:36:02;;;;;;;;;;;17.00;58.50;;;;;;5079509;28;19908;-72
2022/10/20 13:38:31;;;;;;;;;;;16.90;58.00;;;;;;5046759;28;19905;-72
2022/10/20 13:41:21;;;;;;;;;;;17.00;57.70;;;;;;5061050;28;19966;-72
2022/10/20 13:44:00;;;;;;;;;;;17.40;56.30;;;;;;5060955;28;19920;-70
2022/10/20 13:46:25;;;;;;;;;;;17.00;56.20;;;;;;5061913;28;19985;-71
2022/10/20 13:49:09;;;;;;;;;;;16.90;57.30;;;;;;5065434;28;19963;-71
2022/10/20 13:51:43;;;;;;;;;;;16.60;57.80;;;;;;5040549;28;19963;-71
2022/10/20 13:54:15;;;;;;;;;;;16.50;56.20;;;;;;5064120;28;19912;-72
2022/10/20 13:56:45;;;;;;;;;;;16.80;56.70;;;;;;5064794;28;20420;-73
2022/10/20 13:59:13;;;;;;;;;;;16.30;56.80;;;;;;5057293;28;19913;-71
2022/10/20 14:01:43;;;;;;;;;;;16.00;58.20;;;;;;5041768;28;20360;-72
2022/10/20 14:04:23;;;;;;;;;;;16.10;58.20;;;;;;5052213;28;19909;-73
2022/10/20 14:06:48;;;;;;;;;;;16.10;57.80;;;;;;5072933;28;19912;-70
2022/10/20 14:09:18;;;;;;;;;;;16.00;58.70;;;;;;5064110;28;21287;-71
2022/10/20 14:11:45;;;;;;;;;;;15.50;58.80;;;;;;5065770;28;19916;-70
2022/10/20 14:14:16;;;;;;;;;;;15.50;60.10;;;;;;5066805;28;20364;-68
2022/10/20 14:16:46;;;;;;;;;;;15.10;59.40;;;;;;5071393;28;19908;-71
2022/10/20 14:19:11;;;;;;;;;;;14.60;61.30;;;;;;5049986;28;19935;-72
2022/10/20 14:21:41;;;;;;;;;;;14.60;62.20;;;;;;5074701;28;20336;-72
2022/10/20 14:24:42;;;;;;;;;;;14.10;62.90;;;;;;5060770;28;20007;-73
2022/10/20 14:27:14;;;;;;;;;;;14.10;63.80;;;;;;4979911;28;19955;-72
2022/10/20 14:30:05;;;;;;;;;;;13.90;64.60;;;;;;5055813;28;19922;-73
2022/10/20 14:32:31;;;;;;;;;;;13.80;64.90;;;;;;5038317;28;19908;-74
2022/10/20 14:35:01;;;;;;;;;;;13.50;64.60;;;;;;5068835;28;19908;-72